Darbun, Mississippi
Current Conditions -  °F | °C
As of 5:53 PM on Sunday 23 Nov 2014 (Local Time) from KMCB Reporting Station
Clear Clear  
Wind Chill: 66°   Ceiling: Unl
Heat Index: 66°   Visibility: 10mi
Dew Point: 59°   Wind: 12mph
Humidity: 78%   Direction: 190°S
Pressure: 29.61"   Gusts: NA
Location:  31.1757°N, 89.9852°W
Report Text: KMCB 232353Z AUTO 19010KT 10SM CLR 19/15 A2961 RMK AO2 SLP022 T01890150 10222 20189 51014
Loading
Personal Weather Stations






























Interactive Weather Map New forecast layout! Learn more

10-Day Weather Forecast

Advertisements
Track Severe Weather on mobile